Time;durP1;ratioP1;P1;durP2;ratioP2;P2;SDS_P1;SDS_P2;PMS_P1;PMS_P2;Temp;Humidity;BMP_temperature;BMP_pressure;BME280_temperature;BME280_humidity;BME280_pressure;Samples;Min_cycle;Max_cycle;Signal;HPM_P1;HPM_P2
2023/09/14 00:00:27;;;;;;;3.13;1.30;;;;;;;23.99;59.48;100051.38;5071024;28;20215;-75
2023/09/14 00:02:53;;;;;;;1.73;0.93;;;;;;;23.92;59.15;100050.78;5071231;28;20218;-78
2023/09/14 00:05:20;;;;;;;1.40;0.90;;;;;;;23.96;59.48;100055.03;5034226;28;20273;-78
2023/09/14 00:07:47;;;;;;;3.45;1.92;;;;;;;23.99;58.97;100051.38;5053550;28;20210;-78
2023/09/14 00:10:14;;;;;;;4.25;1.33;;;;;;;24.06;58.31;100047.56;5072722;28;20203;-78
2023/09/14 00:12:40;;;;;;;2.20;0.90;;;;;;;23.98;58.37;100033.75;5072806;28;20715;-79
2023/09/14 00:15:09;;;;;;;2.00;0.90;;;;;;;24.11;57.23;100046.44;5034031;28;20215;-76
2023/09/14 00:17:36;;;;;;;1.23;0.88;;;;;;;24.04;57.35;100039.66;5052720;28;20196;-78
2023/09/14 00:20:06;;;;;;;7.07;1.45;;;;;;;23.94;57.27;100046.25;5071647;28;20194;-78
2023/09/14 00:22:33;;;;;;;3.25;1.10;;;;;;;23.92;57.41;100034.88;5072901;28;20198;-79
2023/09/14 00:25:00;;;;;;;6.22;1.95;;;;;;;24.02;57.29;100051.25;5072242;28;20227;-78
2023/09/14 00:27:26;;;;;;;1.35;0.90;;;;;;;24.07;57.26;100044.88;5072594;28;20202;-78
2023/09/14 00:29:53;;;;;;;4.18;1.20;;;;;;;24.07;57.90;100044.00;5071787;28;20625;-78
2023/09/14 00:32:21;;;;;;;2.92;1.00;;;;;;;24.13;57.53;100047.28;5072277;28;20206;-78
2023/09/14 00:34:48;;;;;;;5.03;1.30;;;;;;;24.08;58.27;100046.56;5072213;28;20207;-78
2023/09/14 00:37:15;;;;;;;4.43;1.23;;;;;;;24.06;58.95;100044.91;5071543;28;20654;-78
2023/09/14 00:39:42;;;;;;;6.45;1.40;;;;;;;24.08;58.85;100051.00;5071763;28;20203;-78
2023/09/14 00:42:09;;;;;;;0.98;0.80;;;;;;;24.03;59.56;100051.22;5072363;28;20198;-78
2023/09/14 00:44:35;;;;;;;6.53;1.92;;;;;;;23.93;59.92;100046.34;5071955;28;20230;-78
2023/09/14 00:47:03;;;;;;;1.05;0.80;;;;;;;23.90;60.65;100036.72;5071973;28;20218;-78
2023/09/14 00:49:31;;;;;;;3.75;1.85;;;;;;;23.84;60.98;100036.97;5072073;28;20198;-78
2023/09/14 00:51:57;;;;;;;1.58;0.90;;;;;;;23.81;61.89;100037.09;5036777;28;20642;-78
2023/09/14 00:54:24;;;;;;;0.60;0.60;;;;;;;23.72;64.35;100042.75;5033402;28;20675;-78
2023/09/14 00:56:51;;;;;;;4.20;1.10;;;;;;;23.63;65.17;100038.69;5033204;28;20195;-78
2023/09/14 00:59:18;;;;;;;1.17;1.10;;;;;;;23.50;66.68;100047.16;5064415;28;20202;-78
2023/09/14 01:01:45;;;;;;;4.28;1.13;;;;;;;23.38;67.55;100045.81;5071810;28;20226;-78
2023/09/14 01:04:11;;;;;;;1.35;0.80;;;;;;;23.35;67.22;100048.56;5072000;28;20222;-78
2023/09/14 01:06:39;;;;;;;2.85;1.00;;;;;;;23.28;67.83;100047.06;5071765;28;20214;-79
2023/09/14 01:09:06;;;;;;;2.50;0.93;;;;;;;23.16;68.32;100036.94;5071251;28;20199;-79
2023/09/14 01:11:33;;;;;;;3.60;1.02;;;;;;;23.04;69.13;100042.69;5071722;28;20203;-78
2023/09/14 01:14:10;;;;;;;4.25;1.20;;;;;;;23.05;71.42;100044.41;5071395;28;20230;-78
2023/09/14 01:16:45;;;;;;;3.05;1.77;;;;;;;22.84;81.68;100038.09;5071638;28;20660;-78
2023/09/14 01:19:35;;;;;;;3.15;1.02;;;;;;;22.83;85.99;100046.94;5038055;28;20289;-79
2023/09/14 01:22:21;;;;;;;2.78;0.95;;;;;;;22.70;91.93;100045.66;5029335;28;20636;-79
2023/09/14 01:24:56;;;;;;;1.20;0.93;;;;;;;22.20;93.20;99965.47;5022877;28;20236;-79
2023/09/14 01:27:24;;;;;;;3.03;1.23;;;;;;;22.57;95.78;100044.34;5026825;28;20211;-79
2023/09/14 01:29:51;;;;;;;29.15;2.45;;;;;;;22.10;97.30;99988.69;5029297;28;20204;-78
2023/09/14 01:32:18;;;;;;;4.50;1.17;;;;;;;22.22;97.58;100019.13;5029148;28;20204;-78
2023/09/14 01:34:44;;;;;;;2.10;0.93;;;;;;;22.22;90.27;100019.13;5028276;28;20208;-78
2023/09/14 01:37:12;;;;;;;2.70;1.15;;;;;;;22.32;91.31;100046.09;4979576;28;20200;-78
2023/09/14 01:39:40;;;;;;;1.00;0.90;;;;;;;22.38;91.53;100056.44;5028696;28;20204;-78
2023/09/14 01:42:07;;;;;;;2.78;1.10;;;;;;;22.36;98.83;100053.00;5028516;28;20612;-78
2023/09/14 01:44:36;;;;;;;1.85;1.27;;;;;;;22.23;98.61;100058.69;5020404;28;20228;-78
2023/09/14 01:47:03;;;;;;;2.60;1.10;;;;;;;22.09;95.70;100060.91;5022871;28;20238;-77
2023/09/14 01:49:29;;;;;;;1.48;1.00;;;;;;;22.02;98.51;100056.72;5028868;28;20203;-78
2023/09/14 01:51:56;;;;;;;4.28;1.77;;;;;;;21.97;97.50;100055.16;5029087;28;20204;-77
2023/09/14 01:54:23;;;;;;;1.65;1.00;;;;;;;21.82;97.95;100035.34;5029188;28;20207;-78
2023/09/14 01:56:50;;;;;;;4.05;1.17;;;;;;;21.89;96.67;100049.22;5028906;28;20196;-77
2023/09/14 01:59:17;;;;;;;2.17;0.95;;;;;;;21.83;95.17;100052.06;5048521;28;20275;-79
2023/09/14 02:01:45;;;;;;;4.88;1.27;;;;;;;21.92;93.18;100051.78;5071085;28;20199;-78
2023/09/14 02:04:11;;;;;;;2.03;1.00;;;;;;;21.85;93.95;100055.50;5052310;28;20222;-77
2023/09/14 02:06:38;;;;;;;3.45;1.10;;;;;;;21.84;94.70;100051.13;5071089;28;20666;-78
2023/09/14 02:09:05;;;;;;;2.35;1.10;;;;;;;21.78;94.43;100052.19;5070819;28;20195;-78
2023/09/14 02:11:32;;;;;;;4.10;1.08;;;;;;;21.82;93.52;100050.34;5070953;28;20205;-77
2023/09/14 02:13:59;;;;;;;3.13;1.08;;;;;;;21.75;93.93;100047.03;5070973;28;20706;-78
2023/09/14 02:16:26;;;;;;;3.75;1.13;;;;;;;21.76;93.15;100044.31;5070905;28;20646;-78
2023/09/14 02:18:55;;;;;;;3.47;1.25;;;;;;;21.78;91.87;100046.91;5071163;28;20207;-78
2023/09/14 02:21:22;;;;;;;6.18;1.65;;;;;;;21.85;84.79;100051.09;5066191;28;20201;-77
2023/09/14 02:23:48;;;;;;;2.67;1.35;;;;;;;21.86;89.17;100046.69;5050829;28;20234;-77
2023/09/14 02:26:15;;;;;;;4.30;1.25;;;;;;;21.69;90.81;100029.59;5070561;28;20654;-78
2023/09/14 02:28:42;;;;;;;3.95;1.23;;;;;;;21.74;91.63;100047.91;5070971;28;20209;-78
2023/09/14 02:31:09;;;;;;;4.53;1.25;;;;;;;21.66;91.84;100049.94;5070621;28;20217;-78
2023/09/14 02:33:37;;;;;;;3.25;1.05;;;;;;;21.47;91.34;100017.97;5070642;28;20206;-78
2023/09/14 02:36:06;;;;;;;5.15;1.65;;;;;;;21.63;90.83;100027.16;5070631;28;20622;-78
2023/09/14 02:38:33;;;;;;;2.55;1.55;;;;;;;21.72;89.95;100065.59;5070695;28;20214;-78
2023/09/14 02:40:59;;;;;;;2.58;1.00;;;;;;;21.54;89.49;100042.41;5070256;28;20195;-78
2023/09/14 02:43:26;;;;;;;4.55;1.38;;;;;;;21.65;89.46;100054.34;5070533;28;20207;-78
2023/09/14 02:45:53;;;;;;;5.65;1.60;;;;;;;21.54;91.02;100061.75;5070498;28;20225;-78
2023/09/14 02:48:20;;;;;;;4.68;2.50;;;;;;;21.38;91.08;100043.75;5070488;28;20202;-80
2023/09/14 02:50:46;;;;;;;2.95;1.00;;;;;;;21.41;91.70;100064.75;5070465;28;20214;-77
2023/09/14 02:53:15;;;;;;;4.03;1.23;;;;;;;21.32;92.47;100044.81;5070219;28;20203;-78
2023/09/14 02:55:41;;;;;;;2.75;1.38;;;;;;;21.26;92.58;100047.59;5070543;28;20198;-78
2023/09/14 02:58:08;;;;;;;3.80;1.15;;;;;;;21.37;92.95;100064.00;5070214;28;20206;-77
2023/09/14 03:00:38;;;;;;;4.60;1.73;;;;;;;21.31;95.38;100053.63;5073160;28;20198;-79
2023/09/14 03:03:05;;;;;;;4.68;1.17;;;;;;;21.33;98.33;100048.31;5038709;28;20191;-81
2023/09/14 03:05:32;;;;;;;5.50;1.95;;;;;;;20.84;96.33;99973.22;5073895;28;20227;-77
2023/09/14 03:07:59;;;;;;;3.78;1.15;;;;;;;21.37;96.53;100065.78;5073867;28;20190;-78
2023/09/14 03:10:27;;;;;;;3.40;1.10;;;;;;;21.21;97.68;100041.63;5074093;28;20195;-78
2023/09/14 03:12:54;;;;;;;3.83;1.35;;;;;;;21.09;97.24;100063.88;5073431;28;20694;-78
2023/09/14 03:15:21;;;;;;;3.50;1.17;;;;;;;21.17;96.58;100067.22;5074040;28;20206;-79
2023/09/14 03:17:48;;;;;;;6.53;1.88;;;;;;;20.98;97.95;100036.09;5074114;28;20203;-78
2023/09/14 03:20:15;;;;;;;4.05;1.30;;;;;;;21.16;98.68;100073.38;5073629;28;20195;-79
2023/09/14 03:22:41;;;;;;;3.10;1.48;;;;;;;21.11;100.00;100066.53;5074025;28;20203;-77
2023/09/14 03:25:08;;;;;;;3.13;1.15;;;;;;;21.10;100.00;100063.03;5073668;28;20215;-77
2023/09/14 03:27:38;;;;;;;3.85;1.48;;;;;;;21.11;100.00;100061.25;5074184;28;20205;-77
2023/09/14 03:30:06;;;;;;;3.60;1.05;;;;;;;21.12;99.91;100069.09;5073965;28;20281;-79
2023/09/14 03:32:33;;;;;;;3.97;1.15;;;;;;;20.87;100.00;100031.13;5073278;28;20191;-77
2023/09/14 03:35:00;;;;;;;2.58;1.00;;;;;;;20.99;100.00;100062.41;5073538;28;20198;-77
2023/09/14 03:37:27;;;;;;;4.20;1.10;;;;;;;20.97;100.00;100064.25;5073548;28;20214;-77
2023/09/14 03:39:53;;;;;;;3.65;1.45;;;;;;;20.59;100.00;100009.94;5073526;28;20203;-78
2023/09/14 03:42:20;;;;;;;4.88;1.33;;;;;;;20.86;100.00;100061.03;5073632;28;20190;-77
2023/09/14 03:44:48;;;;;;;3.38;1.30;;;;;;;20.94;100.00;100056.41;5073594;28;20226;-80
2023/09/14 03:47:15;;;;;;;2.97;1.00;;;;;;;20.96;100.00;100057.25;5073362;28;20202;-79
2023/09/14 03:49:42;;;;;;;2.63;1.58;;;;;;;20.59;100.00;99998.53;5073545;28;20678;-79
2023/09/14 03:52:08;;;;;;;2.45;1.00;;;;;;;20.94;100.00;100063.47;5073420;28;20195;-77
2023/09/14 03:54:35;;;;;;;1.65;1.10;;;;;;;20.93;100.00;100069.63;5073727;28;20203;-78
2023/09/14 03:57:02;;;;;;;2.40;1.00;;;;;;;20.91;100.00;100074.94;5073042;28;20309;-78
2023/09/14 03:59:30;;;;;;;2.33;1.13;;;;;;;20.93;100.00;100067.00;5073070;28;20226;-78
2023/09/14 04:01:58;;;;;;;4.10;1.30;;;;;;;20.94;100.00;100072.22;5073043;28;20199;-78
2023/09/14 04:04:25;;;;;;;1.40;1.20;;;;;;;20.92;100.00;100079.31;5073062;28;20229;-80
2023/09/14 04:06:52;;;;;;;4.03;1.23;;;;;;;20.87;100.00;100061.91;5072670;28;20199;-77
2023/09/14 04:09:19;;;;;;;3.78;1.70;;;;;;;20.94;100.00;100064.31;5068297;28;20199;-79
2023/09/14 04:11:45;;;;;;;5.38;1.83;;;;;;;20.82;100.00;100046.22;5071722;28;20191;-78
2023/09/14 04:14:12;;;;;;;3.97;1.23;;;;;;;21.01;100.00;100080.84;5072436;28;20222;-78
2023/09/14 04:16:39;;;;;;;4.22;1.52;;;;;;;21.02;100.00;100086.06;5072522;28;20264;-77
2023/09/14 04:19:07;;;;;;;1.80;0.98;;;;;;;21.16;100.00;100091.84;5072316;28;20199;-79
2023/09/14 04:21:34;;;;;;;6.50;1.38;;;;;;;21.26;100.00;100093.31;5072155;28;20424;-81
2023/09/14 04:24:00;;;;;;;2.83;1.00;;;;;;;21.24;100.00;100094.28;5072410;28;20191;-78
2023/09/14 04:26:28;;;;;;;3.25;1.02;;;;;;;21.19;100.00;100081.22;5069263;28;20605;-77
2023/09/14 04:28:55;;;;;;;3.13;1.15;;;;;;;21.41;98.34;100093.78;5071906;28;20256;-77
2023/09/14 04:31:22;;;;;;;3.55;1.17;;;;;;;21.57;95.76;100092.44;5037005;28;20206;-75
2023/09/14 04:33:49;;;;;;;4.57;1.65;;;;;;;21.63;95.27;100103.69;5071446;28;20233;-76
2023/09/14 04:36:17;;;;;;;3.55;1.40;;;;;;;21.83;93.68;100105.69;5067160;28;20210;-77
2023/09/14 04:38:44;;;;;;;2.00;1.05;;;;;;;22.00;91.75;100098.19;5069991;28;20206;-78
2023/09/14 04:41:11;;;;;;;7.53;2.25;;;;;;;22.50;88.08;100100.97;5071804;28;20194;-77
2023/09/14 04:43:38;;;;;;;3.45;1.08;;;;;;;23.00;83.33;100078.97;5071594;28;20666;-77
2023/09/14 04:46:05;;;;;;;2.50;1.10;;;;;;;23.68;80.12;100104.69;5072141;28;20227;-76
2023/09/14 04:48:32;;;;;;;3.50;1.00;;;;;;;24.03;77.17;100085.66;5037198;28;20199;-71
2023/09/14 04:51:00;;;;;;;7.35;2.65;;;;;;;24.56;73.20;100095.88;5068755;28;20202;-78
2023/09/14 04:53:28;;;;;;;4.13;1.58;;;;;;;24.79;69.64;100109.03;5071319;28;20218;-78
2023/09/14 04:55:55;;;;;;;3.38;1.30;;;;;;;25.02;68.56;100118.66;5071358;28;20199;-78
2023/09/14 04:58:22;;;;;;;4.20;1.67;;;;;;;25.27;67.32;100099.84;5071452;28;20191;-78
2023/09/14 05:00:49;;;;;;;3.30;1.02;;;;;;;25.64;63.86;100115.91;5071426;28;20195;-77
2023/09/14 05:03:16;;;;;;;2.13;0.98;;;;;;;25.66;60.74;100108.69;5071052;28;20202;-77
2023/09/14 05:05:43;;;;;;;3.70;1.10;;;;;;;25.72;59.61;100119.03;5071202;28;20763;-77
2023/09/14 05:08:10;;;;;;;4.97;1.80;;;;;;;25.60;58.61;100107.22;5068715;28;20203;-77
2023/09/14 05:10:38;;;;;;;3.03;1.13;;;;;;;25.49;58.21;100120.06;5071346;28;20199;-78
2023/09/14 05:13:05;;;;;;;5.50;1.33;;;;;;;25.16;59.96;100121.56;5071340;28;20234;-77
2023/09/14 05:15:32;;;;;;;4.38;1.15;;;;;;;24.99;59.03;100117.00;5069342;28;20245;-74
2023/09/14 05:17:59;;;;;;;3.45;1.23;;;;;;;24.76;60.83;100093.22;5070558;28;20210;-75
2023/09/14 05:20:26;;;;;;;2.85;1.55;;;;;;;24.80;61.38;100112.50;5066420;28;20603;-79
2023/09/14 05:22:53;;;;;;;4.85;2.40;;;;;;;24.62;62.32;100101.75;5035733;28;20199;-76
2023/09/14 05:25:20;;;;;;;3.45;2.15;;;;;;;24.68;62.07;100116.56;5071102;28;20238;-76
2023/09/14 05:27:48;;;;;;;3.70;1.38;;;;;;;24.52;62.90;100105.72;5068131;28;20198;-77
2023/09/14 05:30:15;;;;;;;2.50;0.95;;;;;;;24.23;65.20;100131.69;5064680;28;20207;-75
2023/09/14 05:32:42;;;;;;;3.53;1.55;;;;;;;24.07;66.34;100134.94;5071461;28;20226;-78
2023/09/14 05:35:09;;;;;;;6.70;1.42;;;;;;;23.85;66.82;100120.81;5065867;28;20278;-78
2023/09/14 05:37:36;;;;;;;7.00;1.50;;;;;;;23.56;69.12;100131.63;5070856;28;20202;-78
2023/09/14 05:40:12;;;;;;;2.00;1.00;;;;;;;23.42;69.59;100113.63;5070845;28;20591;-78
2023/09/14 05:42:38;;;;;;;3.33;0.90;;;;;;;23.36;69.61;100102.38;5069089;28;20205;-77
2023/09/14 05:45:08;;;;;;;8.98;1.67;;;;;;;23.47;69.84;100122.22;5064223;28;20231;-77
2023/09/14 05:47:35;;;;;;;7.15;1.60;;;;;;;23.54;68.64;100117.59;5071125;28;20269;-76
2023/09/14 05:50:03;;;;;;;1.60;0.93;;;;;;;23.49;68.74;100101.88;5067791;28;20202;-76
2023/09/14 05:52:30;;;;;;;5.90;1.30;;;;;;;23.73;67.23;100123.91;5070567;28;20206;-78
2023/09/14 05:54:57;;;;;;;3.97;1.20;;;;;;;23.55;65.98;100087.53;5071075;28;20210;-78
2023/09/14 05:57:24;;;;;;;4.95;1.25;;;;;;;23.64;66.56;100109.25;5071066;28;20861;-82
2023/09/14 05:59:51;;;;;;;1.70;0.80;;;;;;;23.70;67.20;100129.31;5071021;28;20195;-78
2023/09/14 06:02:19;;;;;;;4.15;1.52;;;;;;;23.65;65.67;100126.00;5070897;28;20260;-78
2023/09/14 06:04:47;;;;;;;1.25;0.90;;;;;;;23.41;65.65;100106.59;5067444;28;20202;-78
2023/09/14 06:07:13;;;;;;;6.70;1.65;;;;;;;23.29;65.83;100106.16;5070926;28;20207;-78
2023/09/14 06:09:40;;;;;;;2.67;1.00;;;;;;;23.40;65.71;100111.91;5065200;28;20673;-78
2023/09/14 06:12:07;;;;;;;8.35;1.63;;;;;;;23.67;65.19;100132.97;5057952;28;20203;-77
2023/09/14 06:14:36;;;;;;;2.55;1.25;;;;;;;23.37;65.47;100109.34;5067619;28;20210;-77
2023/09/14 06:17:03;;;;;;;5.07;1.27;;;;;;;23.60;65.07;100127.94;5068401;28;20301;-79
2023/09/14 06:19:31;;;;;;;6.40;2.45;;;;;;;23.85;64.93;100131.41;5063108;28;20674;-78
2023/09/14 06:21:58;;;;;;;4.68;1.20;;;;;;;23.90;65.00;100131.22;5065441;28;20190;-77
2023/09/14 06:24:25;;;;;;;1.60;0.90;;;;;;;24.04;65.68;100127.09;5023293;28;20199;-78
2023/09/14 06:26:52;;;;;;;6.40;1.67;;;;;;;24.18;64.55;100123.94;5069885;28;20297;-73
2023/09/14 06:29:19;;;;;;;5.70;1.45;;;;;;;24.29;64.95;100129.69;5029865;28;20199;-73
2023/09/14 06:31:45;;;;;;;3.60;1.65;;;;;;;24.27;64.61;100115.63;5032995;28;20256;-76
2023/09/14 06:34:12;;;;;;;1.55;0.90;;;;;;;24.27;64.46;100120.91;5056665;28;20210;-80
2023/09/14 06:36:40;;;;;;;4.55;1.00;;;;;;;24.48;62.73;100148.34;5067417;28;20202;-80
2023/09/14 06:39:07;;;;;;;13.60;2.10;;;;;;;24.40;62.47;100147.81;5071365;28;20214;-79
2023/09/14 06:41:34;;;;;;;3.97;0.98;;;;;;;24.49;63.08;100142.97;5072646;28;20279;-79
2023/09/14 06:44:01;;;;;;;7.03;1.38;;;;;;;24.58;62.84;100139.06;5062728;28;20203;-76
2023/09/14 06:46:28;;;;;;;2.50;0.93;;;;;;;24.70;61.37;100135.91;5038871;28;20252;-74
2023/09/14 06:48:55;;;;;;;5.43;1.52;;;;;;;24.65;61.18;100153.81;5063437;28;20210;-75
2023/09/14 06:51:21;;;;;;;5.75;1.42;;;;;;;24.66;61.58;100155.53;5057270;28;20206;-75
2023/09/14 06:53:51;;;;;;;7.47;1.83;;;;;;;24.87;61.87;100152.00;5030387;28;20206;-75
2023/09/14 06:56:18;;;;;;;3.40;1.35;;;;;;;25.00;60.58;100160.34;5073564;28;20294;-77
2023/09/14 06:58:45;;;;;;;4.25;1.50;;;;;;;25.04;60.01;100162.75;5071650;28;20199;-76
2023/09/14 07:01:11;;;;;;;16.15;3.88;;;;;;;25.02;60.21;100158.47;5072209;28;20206;-72
2023/09/14 07:03:38;;;;;;;1.38;0.98;;;;;;;25.01;60.49;100157.59;5073818;28;20662;-72
2023/09/14 07:06:06;;;;;;;5.55;1.25;;;;;;;25.05;61.14;100153.88;5073172;28;20911;-73
2023/09/14 07:08:32;;;;;;;4.53;1.38;;;;;;;25.17;60.44;100166.63;5073533;28;20211;-73
2023/09/14 07:11:00;;;;;;;10.43;1.95;;;;;;;25.40;60.26;100178.06;5073421;28;20643;-73
2023/09/14 07:13:27;;;;;;;3.10;1.42;;;;;;;25.38;60.15;100179.91;5073444;28;20222;-73
2023/09/14 07:15:54;;;;;;;2.90;1.00;;;;;;;24.83;58.97;100094.72;5064118;28;20651;-73
2023/09/14 07:18:29;;;;;;;2.63;1.50;;;;;;;25.41;59.65;100175.31;5064202;28;20606;-72
2023/09/14 07:20:57;;;;;;;3.72;1.35;;;;;;;25.61;59.90;100171.81;5066145;28;20243;-72
2023/09/14 07:23:24;;;;;;;3.22;0.95;;;;;;;25.86;62.69;100176.88;5073587;28;20209;-73
2023/09/14 07:25:51;;;;;;;7.47;1.52;;;;;;;26.02;63.50;100162.78;5073053;28;20222;-72
2023/09/14 07:28:20;;;;;;;3.40;1.10;;;;;;;26.23;65.34;100170.69;5025136;28;20221;-73
2023/09/14 07:30:48;;;;;;;1.60;0.82;;;;;;;25.73;68.34;100115.44;5067701;28;20210;-74
2023/09/14 07:33:15;;;;;;;6.22;1.23;;;;;;;26.00;71.18;100172.63;5072739;28;20206;-75
2023/09/14 07:35:43;;;;;;;3.33;1.30;;;;;;;26.09;70.52;100148.28;5073375;28;20261;-72
2023/09/14 07:38:12;;;;;;;5.57;1.25;;;;;;;26.32;70.51;100162.31;5031460;28;20203;-76
2023/09/14 07:40:39;;;;;;;6.65;1.58;;;;;;;26.42;72.52;100144.97;5073119;28;20214;-75
2023/09/14 07:43:06;;;;;;;11.05;2.17;;;;;;;26.58;70.85;100159.22;5073342;28;20705;-76
2023/09/14 07:45:34;;;;;;;3.72;1.10;;;;;;;26.75;71.06;100167.25;5072528;28;20235;-77
2023/09/14 07:48:01;;;;;;;5.22;1.25;;;;;;;26.76;72.60;100165.41;5072946;28;20301;-78
2023/09/14 07:50:28;;;;;;;4.30;1.35;;;;;;;27.00;70.38;100162.41;5071399;28;20210;-76
2023/09/14 07:52:55;;;;;;;4.57;1.15;;;;;;;27.09;71.24;100161.09;5070181;28;20249;-76
2023/09/14 07:55:22;;;;;;;4.63;1.90;;;;;;;27.37;66.76;100165.81;5072869;28;20210;-76
2023/09/14 07:57:48;;;;;;;11.50;1.85;;;;;;;26.93;70.33;100073.16;5070444;28;20207;-75
2023/09/14 08:00:15;;;;;;;3.40;1.10;;;;;;;27.44;71.17;100145.91;5035696;28;20761;-78
2023/09/14 08:02:43;;;;;;;4.88;1.10;;;;;;;27.80;67.77;100154.63;5034204;28;20208;-78
2023/09/14 08:05:10;;;;;;;10.27;1.52;;;;;;;28.07;66.24;100166.47;5072773;28;20218;-77
2023/09/14 08:07:37;;;;;;;4.13;1.00;;;;;;;28.29;64.23;100167.97;5069358;28;20234;-77
2023/09/14 08:10:04;;;;;;;9.60;1.80;;;;;;;28.35;61.88;100147.13;5061372;28;20199;-77
2023/09/14 08:12:31;;;;;;;6.22;1.42;;;;;;;28.45;64.41;100169.66;5066184;28;20728;-76
2023/09/14 08:14:58;;;;;;;4.38;1.30;;;;;;;28.57;67.20;100154.75;5070771;28;20290;-77
2023/09/14 08:17:25;;;;;;;4.35;1.17;;;;;;;28.43;69.69;100150.19;5072487;28;20210;-76
2023/09/14 08:19:53;;;;;;;4.53;1.10;;;;;;;28.74;63.74;100153.78;5072134;28;20282;-78
2023/09/14 08:22:22;;;;;;;6.75;1.60;;;;;;;28.57;69.83;100160.94;5037231;28;20203;-76
2023/09/14 08:24:49;;;;;;;6.75;1.45;;;;;;;28.55;69.11;100154.84;5036447;28;20287;-78
2023/09/14 08:27:16;;;;;;;6.97;3.15;;;;;;;28.62;66.78;100139.31;5072233;28;20367;-78
2023/09/14 08:29:43;;;;;;;5.93;1.40;;;;;;;28.88;66.84;100153.84;5066375;28;20202;-78
2023/09/14 08:32:10;;;;;;;2.00;0.80;;;;;;;29.02;62.81;100157.41;5035742;28;20222;-77
2023/09/14 08:34:37;;;;;;;3.97;1.15;;;;;;;29.04;62.28;100151.97;5027514;28;20198;-78
2023/09/14 08:37:09;;;;;;;3.05;1.45;;;;;;;28.95;61.11;100148.06;5071956;28;20336;-77
2023/09/14 08:39:36;;;;;;;11.77;2.83;;;;;;;28.86;64.04;100147.75;5072061;28;20217;-79
2023/09/14 08:42:02;;;;;;;2.85;1.35;;;;;;;28.71;64.35;100111.28;5071758;28;20620;-77
2023/09/14 08:44:33;;;;;;;9.30;3.38;;;;;;;28.92;64.72;100132.22;5071852;28;20190;-79
2023/09/14 08:47:01;;;;;;;10.65;3.47;;;;;;;28.77;63.36;100126.91;5071699;28;20586;-76
2023/09/14 08:49:29;;;;;;;7.10;2.47;;;;;;;28.57;66.07;100126.25;5071796;28;20209;-76
2023/09/14 08:51:58;;;;;;;2.83;1.58;;;;;;;28.58;64.17;100143.97;5071513;28;20252;-77
2023/09/14 08:54:26;;;;;;;11.88;1.83;;;;;;;28.73;64.41;100136.91;5071612;28;20209;-77
2023/09/14 08:56:53;;;;;;;2.35;1.00;;;;;;;28.60;63.38;100117.22;5071274;28;20198;-79
2023/09/14 08:59:24;;;;;;;5.30;1.13;;;;;;;28.75;63.67;100140.38;5071755;28;20195;-77
2023/09/14 09:01:52;;;;;;;3.50;1.30;;;;;;;28.94;63.20;100135.66;5036172;28;20203;-78
2023/09/14 09:04:19;;;;;;;6.28;1.30;;;;;;;29.12;62.57;100132.81;5071379;28;20666;-77
2023/09/14 09:06:46;;;;;;;5.22;1.10;;;;;;;29.01;62.71;100137.00;5031319;28;20586;-77
2023/09/14 09:09:15;;;;;;;11.77;1.95;;;;;;;29.27;61.47;100132.78;5068774;28;20202;-79
2023/09/14 09:11:44;;;;;;;5.95;2.25;;;;;;;29.48;59.92;100142.16;5058302;28;20206;-78
2023/09/14 09:14:10;;;;;;;2.75;1.05;;;;;;;29.56;58.44;100133.66;5071237;28;20274;-77
2023/09/14 09:16:39;;;;;;;5.80;1.95;;;;;;;29.72;58.75;100130.88;5058590;28;20214;-77
2023/09/14 09:19:07;;;;;;;13.93;2.00;;;;;;;29.64;59.52;100131.38;5035892;28;20194;-77
2023/09/14 09:21:35;;;;;;;6.93;2.03;;;;;;;29.82;61.25;100130.19;5070916;28;20224;-78
2023/09/14 09:24:04;;;;;;;3.30;1.65;;;;;;;30.06;60.88;100129.63;5057049;28;20202;-78
2023/09/14 09:26:35;;;;;;;4.53;1.23;;;;;;;30.10;60.24;100107.06;5070863;28;20614;-78
2023/09/14 09:29:14;;;;;;;7.93;1.50;;;;;;;30.42;59.96;100124.59;5067752;28;20283;-80
2023/09/14 09:31:42;;;;;;;3.72;1.13;;;;;;;30.54;59.54;100129.09;5070674;28;20741;-77
2023/09/14 09:34:10;;;;;;;4.70;1.33;;;;;;;30.20;58.53;100118.88;5070846;28;20298;-78
2023/09/14 09:36:37;;;;;;;1.23;0.90;;;;;;;30.11;58.53;100119.50;5070752;28;20206;-77
2023/09/14 09:39:05;;;;;;;9.43;1.80;;;;;;;30.15;58.96;100105.81;5018403;28;20293;-76
2023/09/14 09:41:33;;;;;;;7.70;1.95;;;;;;;29.73;59.10;100124.56;5057429;28;20268;-78
2023/09/14 09:44:00;;;;;;;4.20;1.15;;;;;;;29.65;58.14;100113.50;5065628;28;20214;-78
2023/09/14 09:46:28;;;;;;;2.08;1.10;;;;;;;29.79;57.25;100127.72;5035294;28;20225;-76
2023/09/14 09:48:55;;;;;;;6.00;1.20;;;;;;;29.75;57.45;100118.16;5053419;28;20202;-78
2023/09/14 09:51:24;;;;;;;1.77;1.00;;;;;;;29.76;57.97;100109.19;5068661;28;20673;-77
2023/09/14 09:54:08;;;;;;;3.45;0.90;;;;;;;29.71;59.26;100089.94;5064247;28;20263;-78
2023/09/14 09:56:36;;;;;;;2.50;1.63;;;;;;;29.60;61.91;100087.09;5071322;28;20695;-79
2023/09/14 09:59:09;;;;;;;9.27;1.83;;;;;;;29.85;61.48;100119.34;5063309;28;20206;-79
2023/09/14 10:01:38;;;;;;;4.78;1.17;;;;;;;29.80;60.78;100116.06;5064642;28;20666;-77
2023/09/14 10:04:08;;;;;;;6.07;1.60;;;;;;;29.84;61.03;100112.28;5058169;28;20199;-78
2023/09/14 10:06:36;;;;;;;3.95;1.13;;;;;;;29.81;62.19;100115.13;5015136;28;20379;-77
2023/09/14 10:09:06;;;;;;;6.47;1.38;;;;;;;29.81;61.87;100108.91;5067450;28;20206;-78
2023/09/14 10:11:33;;;;;;;6.82;1.73;;;;;;;29.89;61.57;100110.19;5070136;28;20209;-78
2023/09/14 10:14:02;;;;;;;2.55;1.05;;;;;;;29.95;58.71;100107.13;5069935;28;20226;-76
2023/09/14 10:16:35;;;;;;;5.75;1.58;;;;;;;30.13;58.08;100101.53;5070508;28;20677;-78
2023/09/14 10:19:03;;;;;;;10.00;1.65;;;;;;;30.16;57.02;100102.19;5066887;28;20248;-77
2023/09/14 10:21:30;;;;;;;2.97;1.00;;;;;;;30.13;56.53;100080.97;5035355;28;20295;-77
2023/09/14 10:23:58;;;;;;;4.32;1.10;;;;;;;30.37;55.56;100099.91;5069903;28;20562;-77
2023/09/14 10:26:25;;;;;;;5.63;1.23;;;;;;;30.49;54.62;100096.44;5051548;28;20237;-77
2023/09/14 10:28:54;;;;;;;10.80;1.88;;;;;;;30.66;53.53;100089.97;5058808;28;20205;-78
2023/09/14 10:31:22;;;;;;;3.95;1.15;;;;;;;30.53;52.45;100089.94;5070171;28;20198;-77
2023/09/14 10:33:51;;;;;;;2.83;0.90;;;;;;;30.50;51.96;100087.47;5069415;28;20211;-78
2023/09/14 10:36:20;;;;;;;5.40;1.30;;;;;;;30.69;51.25;100084.38;5070544;28;20202;-78
2023/09/14 10:38:49;;;;;;;6.68;2.08;;;;;;;30.68;50.85;100072.81;5070590;28;20666;-78
2023/09/14 10:41:16;;;;;;;6.85;1.40;;;;;;;30.70;50.21;100092.31;5070308;28;20247;-77
2023/09/14 10:43:43;;;;;;;2.65;1.08;;;;;;;30.68;49.35;100088.88;5057561;28;20206;-79
2023/09/14 10:46:14;;;;;;;3.05;1.00;;;;;;;30.97;49.28;100090.47;5050365;28;20196;-78
2023/09/14 10:48:41;;;;;;;3.38;1.17;;;;;;;31.06;48.34;100088.97;5050354;28;20195;-77
2023/09/14 10:51:11;;;;;;;9.65;2.22;;;;;;;30.90;46.80;100051.63;5050772;28;20203;-78
2023/09/14 10:53:41;;;;;;;2.10;0.95;;;;;;;31.11;46.17;100086.00;5050571;28;20207;-79
2023/09/14 10:56:20;;;;;;;3.38;1.17;;;;;;;31.18;45.50;100081.91;5050364;28;20191;-78
2023/09/14 10:58:51;;;;;;;3.17;1.08;;;;;;;31.61;45.03;100085.97;5050302;28;20750;-78
2023/09/14 11:01:24;;;;;;;3.13;1.13;;;;;;;31.91;43.89;100080.22;5050569;28;20241;-77
2023/09/14 11:04:12;;;;;;;5.03;1.88;;;;;;;31.80;40.75;100080.13;5050598;28;20234;-78
2023/09/14 11:06:45;;;;;;;2.55;1.63;;;;;;;31.59;40.32;100082.53;5050552;28;20226;-76
2023/09/14 11:09:17;;;;;;;3.67;1.20;;;;;;;31.49;40.06;100076.09;5015241;28;20206;-79
2023/09/14 11:11:45;;;;;;;3.35;1.30;;;;;;;31.45;39.78;100082.63;5050150;28;20670;-79
2023/09/14 11:14:14;;;;;;;4.40;1.10;;;;;;;31.49;39.28;100084.13;5064981;28;20233;-78
2023/09/14 11:16:48;;;;;;;3.33;1.25;;;;;;;31.79;38.78;100079.28;5070114;28;20293;-78
2023/09/14 11:19:48;;;;;;;2.60;1.27;;;;;;;31.77;37.92;100078.53;5069734;28;20673;-77
2023/09/14 11:22:16;;;;;;;1.65;0.80;;;;;;;31.81;37.12;100077.34;5073021;28;20202;-76
2023/09/14 11:24:45;;;;;;;5.90;1.25;;;;;;;31.89;37.24;100077.63;5073391;28;20202;-76
2023/09/14 11:27:18;;;;;;;3.63;1.10;;;;;;;32.28;36.35;100073.88;5073365;28;20229;-77